Station History

Weather Underground - logo

Station Historical Data
Daily Summary for December 14, 2017 Units:  English    Metric   Both
« Previous Day
Next Day »
Daily Weekly Monthly Yearly Custom
  High: Low: Average:
Temperature: 61.6 °F 32.6 °F 44.7 °F
Dew Point: 43.5 °F 30.3 °F 37 °F
Humidity: 93 % 46 % 77 %
Wind Speed: 2.3 mph 0.0 mph 0.2 mph
Wind Gust: 2.3 mph - -
Wind:- - West
Pressure: 30.22 in 30.10 in -
Precipitation: 0.00 in    
Historical Graphs
 
 
Tabular Data for December 14, 2017
Time Temperature Dew Point Pressure Wind Wind Speed Wind Gust Humidity Rainfall Rate (Hourly)
00:00 40.6 °F 36.4 °F 30.11 in Calm     85 % 0.00 in
00:02 40.5 °F 36.3 °F 30.11 in Calm     85 % 0.00 in
00:07 40.4 °F 36.2 °F 30.10 in Calm     85 % 0.00 in
00:12 40.4 °F 36.2 °F 30.11 in Calm     85 % 0.00 in
00:17 40.3 °F 36.1 °F 30.11 in Calm     85 % 0.00 in
00:22 40.4 °F 36.2 °F 30.10 in Calm   0.1 mph 85 % 0.00 in
00:32 40.4 °F 36.2 °F 30.10 in Calm     85 % 0.00 in
00:37 40.3 °F 36.1 °F 30.10 in West 1.2 mph   85 % 0.00 in
00:42 40.1 °F 36.0 °F 30.10 in Calm     85 % 0.00 in
00:47 40.0 °F 36.2 °F 30.10 in Calm     86 % 0.00 in
00:49 40.0 °F 36.2 °F 30.10 in Calm     86 % 0.00 in
00:52 40.1 °F 36.2 °F 30.10 in Calm     86 % 0.00 in
00:57 40.1 °F 36.0 °F 30.10 in Calm     85 % 0.00 in
01:02 40.0 °F 35.9 °F 30.10 in Calm     85 % 0.00 in
01:05 40.0 °F 35.9 °F 30.10 in Calm     85 % 0.00 in
01:10 40.0 °F 36.2 °F 30.10 in West 1.2 mph 1.2 mph 86 % 0.00 in
01:15 40.0 °F 35.9 °F 30.10 in Calm     85 % 0.00 in
01:19 40.0 °F 35.9 °F 30.10 in Calm     85 % 0.00 in
01:20 40.0 °F 35.9 °F 30.10 in Calm     85 % 0.00 in
01:25 40.1 °F 36.0 °F 30.10 in West 1.2 mph 1.2 mph 85 % 0.00 in
01:30 40.2 °F 36.1 °F 30.10 in Calm     85 % 0.00 in
01:35 40.0 °F 35.9 °F 30.10 in Calm     85 % 0.00 in
01:40 39.7 °F 35.6 °F 30.10 in Calm     85 % 0.00 in
01:45 39.3 °F 35.2 °F 30.10 in Calm     85 % 0.00 in
01:50 38.4 °F 34.3 °F 30.10 in Calm     85 % 0.00 in
01:55 37.6 °F 33.8 °F 30.10 in Calm     86 % 0.00 in
01:59 37.4 °F 33.9 °F 30.10 in Calm     87 % 0.00 in
02:00 37.3 °F 33.8 °F 30.10 in Calm     87 % 0.00 in
02:05 36.9 °F 33.7 °F 30.10 in Calm     88 % 0.00 in
02:10 36.7 °F 33.5 °F 30.10 in Calm     88 % 0.00 in
02:15 36.3 °F 33.4 °F 30.10 in Calm     89 % 0.00 in
02:20 36.0 °F 33.1 °F 30.10 in Calm     89 % 0.00 in
02:22 35.9 °F 33.0 °F 30.10 in Calm     89 % 0.00 in
02:27 35.7 °F 33.1 °F 30.10 in Calm     90 % 0.00 in
02:32 35.6 °F 33.0 °F 30.10 in Calm     90 % 0.00 in
02:35 35.5 °F 32.9 °F 30.10 in Calm     90 % 0.00 in
02:39 35.3 °F 32.7 °F 30.10 in Calm     90 % 0.00 in
02:44 35.3 °F 32.9 °F 30.10 in Calm     91 % 0.00 in
02:49 35.3 °F 32.9 °F 30.10 in Calm     91 % 0.00 in
02:54 35.2 °F 32.8 °F 30.10 in Calm     91 % 0.00 in
02:59 35.2 °F 32.8 °F 30.10 in Calm     91 % 0.00 in
03:04 35.1 °F 32.7 °F 30.10 in Calm     91 % 0.00 in
03:09 35.0 °F 32.6 °F 30.10 in Calm     91 % 0.00 in
03:14 34.8 °F 32.4 °F 30.10 in Calm     91 % 0.00 in
03:17 34.7 °F 32.3 °F 30.10 in Calm     91 % 0.00 in
03:20 34.7 °F 32.3 °F 30.10 in Calm     91 % 0.00 in
03:25 34.7 °F 32.3 °F 30.10 in Calm     91 % 0.00 in
03:29 34.6 °F 32.2 °F 30.10 in Calm     91 % 0.00 in
03:34 34.4 °F 32.0 °F 30.10 in Calm     91 % 0.00 in
03:39 34.7 °F 32.6 °F 30.11 in Calm     92 % 0.00 in
03:44 34.7 °F 32.6 °F 30.11 in Calm     92 % 0.00 in
03:45 34.8 °F 32.7 °F 30.11 in Calm     92 % 0.00 in
03:50 34.8 °F 32.7 °F 30.11 in Calm     92 % 0.00 in
03:52 34.8 °F 32.7 °F 30.11 in Calm     92 % 0.00 in
03:55 34.9 °F 32.8 °F 30.11 in Calm     92 % 0.00 in
04:00 35.1 °F 33.3 °F 30.11 in Calm     93 % 0.00 in
04:05 35.1 °F 33.0 °F 30.11 in Calm     92 % 0.00 in
04:06 35.0 °F 32.9 °F 30.11 in Calm     92 % 0.00 in
04:11 34.8 °F 32.7 °F 30.11 in Calm     92 % 0.00 in
04:16 34.8 °F 32.7 °F 30.11 in Calm     92 % 0.00 in
04:21 34.9 °F 33.1 °F 30.11 in Calm     93 % 0.00 in
04:26 34.8 °F 32.7 °F 30.11 in Calm     92 % 0.00 in
04:31 34.6 °F 32.5 °F 30.11 in Calm     92 % 0.00 in
04:35 34.5 °F 32.4 °F 30.11 in Calm     92 % 0.00 in
04:36 34.5 °F 32.4 °F 30.11 in Calm     92 % 0.00 in
04:39 34.4 °F 32.3 °F 30.11 in Calm     92 % 0.00 in
04:44 34.3 °F 32.2 °F 30.11 in Calm     92 % 0.00 in
04:50 33.4 °F 30.8 °F 30.11 in Calm     90 % 0.00 in
04:55 32.9 °F 30.3 °F 30.11 in Calm     90 % 0.00 in
05:00 32.9 °F 30.6 °F 30.11 in Calm     91 % 0.00 in
05:01 32.9 °F 30.6 °F 30.11 in Calm     91 % 0.00 in
05:05 33.2 °F 31.1 °F 30.11 in Calm     92 % 0.00 in
05:10 33.5 °F 31.4 °F 30.11 in Calm     92 % 0.00 in
05:15 33.4 °F 31.3 °F 30.12 in Calm     92 % 0.00 in
05:20 33.4 °F 31.3 °F 30.12 in Calm     92 % 0.00 in
05:25 33.5 °F 31.4 °F 30.12 in Calm     92 % 0.00 in
05:30 33.3 °F 31.0 °F 30.13 in Calm     91 % 0.00 in
05:35 33.0 °F 30.7 °F 30.13 in Calm     91 % 0.00 in
05:40 32.7 °F 30.4 °F 30.13 in West 1.2 mph 1.2 mph 91 % 0.00 in
05:42 32.6 °F 30.3 °F 30.13 in Calm     91 % 0.00 in
05:47 32.7 °F 30.6 °F 30.13 in Calm     92 % 0.00 in
05:52 32.6 °F 30.5 °F 30.13 in Calm     92 % 0.00 in
05:57 32.7 °F 30.6 °F 30.13 in Calm     92 % 0.00 in
06:03 32.7 °F 30.9 °F 30.13 in Calm     93 % 0.00 in
06:08 33.3 °F 31.5 °F 30.14 in Calm     93 % 0.00 in
06:13 33.4 °F 31.6 °F 30.14 in Calm     93 % 0.00 in
06:18 33.7 °F 31.9 °F 30.14 in Calm     93 % 0.00 in
06:20 33.7 °F 31.9 °F 30.14 in Calm     93 % 0.00 in
06:25 33.6 °F 31.5 °F 30.15 in Calm     92 % 0.00 in
06:30 33.4 °F 31.3 °F 30.15 in Calm     92 % 0.00 in
06:35 33.4 °F 31.3 °F 30.15 in Calm     92 % 0.00 in
06:39 33.4 °F 31.6 °F 30.15 in Calm     93 % 0.00 in
06:44 33.3 °F 31.5 °F 30.15 in Calm     93 % 0.00 in
06:46 33.3 °F 31.5 °F 30.15 in Calm     93 % 0.00 in
06:52 33.2 °F 31.1 °F 30.16 in Calm     92 % 0.00 in
06:57 33.3 °F 31.5 °F 30.16 in Calm     93 % 0.00 in
07:02 33.2 °F 31.4 °F 30.16 in Calm     93 % 0.00 in
07:07 33.1 °F 31.3 °F 30.16 in Calm     93 % 0.00 in
07:12 33.1 °F 31.3 °F 30.16 in Calm     93 % 0.00 in
07:17 33.0 °F 30.9 °F 30.16 in Calm     92 % 0.00 in
07:22 32.9 °F 30.8 °F 30.16 in Calm     92 % 0.00 in
07:27 32.8 °F 30.7 °F 30.16 in Calm     92 % 0.00 in
07:32 32.8 °F 30.7 °F 30.16 in Calm     92 % 0.00 in
07:37 33.2 °F 31.1 °F 30.16 in Calm     92 % 0.00 in
07:42 33.3 °F 31.2 °F 30.17 in Calm     92 % 0.00 in
07:43 33.3 °F 31.2 °F 30.17 in Calm     92 % 0.00 in
07:48 33.6 °F 31.5 °F 30.17 in Calm     92 % 0.00 in
07:53 33.9 °F 31.8 °F 30.18 in Calm     92 % 0.00 in
07:58 34.4 °F 32.6 °F 30.18 in Calm     93 % 0.00 in
08:03 35.2 °F 33.1 °F 30.18 in Calm     92 % 0.00 in
08:08 35.8 °F 33.7 °F 30.18 in Calm     92 % 0.00 in
08:13 36.4 °F 34.0 °F 30.18 in Calm     91 % 0.00 in
08:18 37.1 °F 34.4 °F 30.18 in Calm     90 % 0.00 in
08:23 37.8 °F 35.1 °F 30.18 in Calm     90 % 0.00 in
08:24 38.0 °F 35.3 °F 30.18 in Calm     90 % 0.00 in
08:28 38.5 °F 35.3 °F 30.18 in Calm     88 % 0.00 in
08:33 38.9 °F 35.6 °F 30.19 in Calm     88 % 0.00 in
08:35 39.1 °F 35.8 °F 30.18 in Calm     88 % 0.00 in
08:40 40.4 °F 36.8 °F 30.19 in Calm     87 % 0.00 in
08:45 41.7 °F 36.9 °F 30.19 in ESE 1.0 mph 1.0 mph 83 % 0.00 in
08:50 42.2 °F 37.4 °F 30.19 in Calm     83 % 0.00 in
08:55 42.7 °F 37.3 °F 30.19 in Calm     81 % 0.00 in
09:00 43.1 °F 37.3 °F 30.19 in Calm     80 % 0.00 in
09:04 43.5 °F 37.7 °F 30.19 in Calm     80 % 0.00 in
09:06 43.9 °F 38.1 °F 30.19 in Calm     80 % 0.00 in
09:11 44.9 °F 38.5 °F 30.19 in Calm     78 % 0.00 in
09:16 45.8 °F 38.7 °F 30.19 in ESE 1.2 mph 1.2 mph 76 % 0.00 in
09:21 46.0 °F 38.2 °F 30.19 in South 1.2 mph   74 % 0.00 in
09:26 46.6 °F 38.8 °F 30.19 in Calm     74 % 0.00 in
09:28 46.8 °F 38.6 °F 30.19 in Calm     73 % 0.00 in
09:31 47.1 °F 38.5 °F 30.19 in Calm     72 % 0.00 in
09:36 47.0 °F 38.1 °F 30.19 in Calm     71 % 0.00 in
09:39 47.1 °F 38.2 °F 30.19 in Calm     71 % 0.00 in
09:44 47.5 °F 38.2 °F 30.20 in Calm     70 % 0.00 in
09:48 47.8 °F 38.1 °F 30.19 in Calm     69 % 0.00 in
09:49 47.9 °F 38.6 °F 30.19 in Calm     70 % 0.00 in
09:54 48.3 °F 38.6 °F 30.20 in Calm     69 % 0.00 in
09:55 48.3 °F 38.6 °F 30.19 in Calm     69 % 0.00 in
10:00 48.8 °F 39.1 °F 30.20 in Calm     69 % 0.00 in
10:05 49.0 °F 38.5 °F 30.19 in Calm     67 % 0.00 in
10:10 49.5 °F 39.0 °F 30.19 in Calm     67 % 0.00 in
10:15 50.3 °F 39.8 °F 30.19 in Calm     67 % 0.00 in
10:19 50.7 °F 39.7 °F 30.19 in NW 1.2 mph   66 % 0.00 in
10:20 50.7 °F 39.7 °F 30.19 in Calm     66 % 0.00 in
10:25 50.9 °F 39.9 °F 30.19 in Calm     66 % 0.00 in
10:28 51.1 °F 39.7 °F 30.19 in SSE 1.2 mph 1.2 mph 65 % 0.00 in
10:30 51.4 °F 40.0 °F 30.19 in WSW 1.2 mph   65 % 0.00 in
10:33 51.5 °F 39.7 °F 30.19 in WSW 1.0 mph   64 % 0.00 in
10:38 52.0 °F 40.2 °F 30.19 in Calm     64 % 0.00 in
10:43 53.0 °F 41.5 °F 30.18 in SE 1.2 mph   65 % 0.00 in
10:48 53.1 °F 39.6 °F 30.18 in Calm     60 % 0.00 in
10:53 53.0 °F 39.5 °F 30.18 in WSW 1.2 mph 1.2 mph 60 % 0.00 in
10:58 53.0 °F 39.5 °F 30.18 in Calm     60 % 0.00 in
11:03 53.2 °F 39.7 °F 30.18 in West 1.2 mph   60 % 0.00 in
11:08 53.8 °F 40.2 °F 30.18 in Calm     60 % 0.00 in
11:13 54.0 °F 40.0 °F 30.18 in WNW 1.2 mph   59 % 0.00 in
11:18 54.3 °F 40.3 °F 30.18 in Calm     59 % 0.00 in
11:22 54.6 °F 40.1 °F 30.17 in Calm     58 % 0.00 in
11:23 54.8 °F 40.7 °F 30.17 in WNW 1.0 mph   59 % 0.00 in
11:28 55.3 °F 40.8 °F 30.17 in Calm     58 % 0.00 in
11:33 55.7 °F 40.7 °F 30.17 in Calm     57 % 0.00 in
11:38 56.2 °F 40.7 °F 30.17 in North 1.2 mph 1.2 mph 56 % 0.00 in
11:43 56.5 °F 40.5 °F 30.17 in NW 1.2 mph   55 % 0.00 in
11:48 56.5 °F 40.5 °F 30.16 in West 1.2 mph 1.2 mph 55 % 0.00 in
11:50 56.7 °F 40.7 °F 30.16 in West 1.2 mph 1.2 mph 55 % 0.00 in
11:55 56.8 °F 40.8 °F 30.16 in West 1.2 mph   55 % 0.00 in
12:00 57.1 °F 41.1 °F 30.16 in West 1.2 mph 1.2 mph 55 % 0.00 in
12:05 57.4 °F 41.4 °F 30.15 in NW 1.2 mph   55 % 0.00 in
12:10 57.7 °F 41.2 °F 30.15 in NW 1.2 mph   54 % 0.00 in
12:15 58.1 °F 41.5 °F 30.15 in Calm     54 % 0.00 in
12:20 58.5 °F 40.9 °F 30.15 in West 1.2 mph 1.2 mph 52 % 0.00 in
12:25 58.6 °F 41.0 °F 30.15 in NW 1.2 mph   52 % 0.00 in
12:29 58.8 °F 41.7 °F 30.15 in Calm     53 % 0.00 in
12:30 58.9 °F 42.3 °F 30.15 in Calm     54 % 0.00 in
12:34 59.3 °F 41.2 °F 30.15 in Calm     51 % 0.00 in
12:39 59.6 °F 41.4 °F 30.15 in ESE 1.2 mph   51 % 0.00 in
12:44 60.1 °F 41.9 °F 30.15 in WSW 1.2 mph 1.2 mph 51 % 0.00 in
12:49 60.5 °F 42.3 °F 30.15 in WNW 2.3 mph 2.3 mph 51 % 0.00 in
12:54 60.3 °F 41.6 °F 30.15 in NW 1.2 mph 1.2 mph 50 % 0.00 in
12:59 60.5 °F 42.3 °F 30.15 in NW 1.2 mph 1.2 mph 51 % 0.00 in
13:04 60.9 °F 42.1 °F 30.15 in West 1.2 mph   50 % 0.00 in
13:09 60.8 °F 41.5 °F 30.15 in NW 1.2 mph 1.2 mph 49 % 0.00 in
13:14 60.6 °F 41.3 °F 30.15 in WSW 1.2 mph   49 % 0.00 in
13:19 60.7 °F 41.9 °F 30.15 in North 1.2 mph   50 % 0.00 in
13:21 60.8 °F 41.5 °F 30.15 in Calm     49 % 0.00 in
13:23 60.8 °F 42.0 °F 30.15 in Calm     50 % 0.00 in
13:24 60.9 °F 42.1 °F 30.15 in NW 1.0 mph 1.0 mph 50 % 0.00 in
13:29 61.0 °F 41.7 °F 30.15 in NW 1.2 mph 1.2 mph 49 % 0.00 in
13:35 61.1 °F 41.2 °F 30.15 in WNW 2.3 mph 2.3 mph 48 % 0.00 in
13:40 61.0 °F 41.2 °F 30.15 in NNW 1.2 mph 1.2 mph 48 % 0.00 in
13:45 61.2 °F 41.3 °F 30.15 in NW 1.0 mph 1.0 mph 48 % 0.00 in
13:50 61.3 °F 41.4 °F 30.15 in West 2.3 mph 2.3 mph 48 % 0.00 in
13:55 61.4 °F 41.0 °F 30.15 in West 1.2 mph 1.2 mph 47 % 0.00 in
14:00 61.4 °F 41.0 °F 30.15 in NW 1.2 mph 1.2 mph 47 % 0.00 in
14:05 61.3 °F 40.3 °F 30.15 in WNW 1.2 mph 1.2 mph 46 % 0.00 in
14:10 61.4 °F 40.4 °F 30.15 in NNW 2.3 mph 2.3 mph 46 % 0.00 in
14:15 61.4 °F 40.4 °F 30.15 in Calm     46 % 0.00 in
14:20 61.4 °F 40.4 °F 30.15 in Calm     46 % 0.00 in
14:25 61.5 °F 40.5 °F 30.15 in East 1.2 mph   46 % 0.00 in
14:30 61.6 °F 41.2 °F 30.15 in Calm     47 % 0.00 in
14:35 61.6 °F 40.6 °F 30.15 in Calm     46 % 0.00 in
14:40 61.5 °F 40.5 °F 30.15 in WNW 1.2 mph   46 % 0.00 in
14:45 61.4 °F 40.4 °F 30.15 in Calm     46 % 0.00 in
14:50 61.4 °F 40.4 °F 30.15 in Calm     46 % 0.00 in
14:55 61.4 °F 41.0 °F 30.15 in Calm     47 % 0.00 in
15:00 61.3 °F 40.9 °F 30.15 in Calm     47 % 0.00 in
15:05 61.3 °F 40.9 °F 30.15 in Calm     47 % 0.00 in
15:10 61.2 °F 40.8 °F 30.15 in Calm     47 % 0.00 in
15:15 61.1 °F 40.1 °F 30.15 in Calm   0.1 mph 46 % 0.00 in
15:20 60.9 °F 40.5 °F 30.15 in Calm     47 % 0.00 in
15:25 60.7 °F 40.3 °F 30.15 in Calm     47 % 0.00 in
15:30 60.6 °F 40.8 °F 30.15 in Calm     48 % 0.00 in
15:35 60.5 °F 40.7 °F 30.15 in Calm     48 % 0.00 in
15:40 60.4 °F 41.1 °F 30.15 in Calm     49 % 0.00 in
15:45 60.2 °F 40.4 °F 30.15 in Calm     48 % 0.00 in
15:50 59.9 °F 40.7 °F 30.15 in Calm     49 % 0.00 in
15:55 59.5 °F 41.3 °F 30.15 in Calm     51 % 0.00 in
16:00 59.2 °F 42.1 °F 30.15 in Calm     53 % 0.00 in
16:05 58.9 °F 42.8 °F 30.15 in Calm     55 % 0.00 in
16:10 58.6 °F 42.5 °F 30.15 in Calm     55 % 0.00 in
16:15 58.2 °F 43.0 °F 30.15 in Calm     57 % 0.00 in
16:20 57.5 °F 42.8 °F 30.15 in Calm     58 % 0.00 in
16:21 57.4 °F 43.2 °F 30.15 in Calm     59 % 0.00 in
16:26 56.8 °F 42.6 °F 30.16 in Calm     59 % 0.00 in
16:31 56.4 °F 42.7 °F 30.16 in Calm     60 % 0.00 in
16:36 55.9 °F 43.5 °F 30.16 in Calm     63 % 0.00 in
16:41 55.3 °F 43.3 °F 30.16 in Calm     64 % 0.00 in
16:46 54.5 °F 43.0 °F 30.16 in Calm     65 % 0.00 in
16:51 53.8 °F 42.3 °F 30.16 in Calm     65 % 0.00 in
16:56 53.1 °F 42.4 °F 30.17 in Calm     67 % 0.00 in
17:01 52.5 °F 42.6 °F 30.17 in Calm     69 % 0.00 in
17:06 51.9 °F 42.4 °F 30.17 in Calm     70 % 0.00 in
17:12 51.3 °F 42.2 °F 30.17 in Calm     71 % 0.00 in
17:17 50.8 °F 42.1 °F 30.17 in Calm     72 % 0.00 in
17:22 50.4 °F 41.7 °F 30.18 in Calm     72 % 0.00 in
17:26 50.3 °F 42.0 °F 30.18 in Calm     73 % 0.00 in
17:31 50.0 °F 41.7 °F 30.18 in Calm     73 % 0.00 in
17:36 49.6 °F 41.7 °F 30.18 in Calm     74 % 0.00 in
17:41 49.2 °F 41.6 °F 30.18 in Calm     75 % 0.00 in
17:46 48.9 °F 41.3 °F 30.18 in Calm     75 % 0.00 in
17:51 48.7 °F 41.1 °F 30.18 in Calm     75 % 0.00 in
17:56 48.5 °F 40.9 °F 30.18 in Calm     75 % 0.00 in
18:01 48.3 °F 41.1 °F 30.18 in Calm     76 % 0.00 in
18:06 48.1 °F 40.9 °F 30.18 in Calm     76 % 0.00 in
18:11 47.8 °F 40.6 °F 30.18 in Calm     76 % 0.00 in
18:16 47.6 °F 40.4 °F 30.18 in Calm     76 % 0.00 in
18:21 47.3 °F 40.5 °F 30.18 in Calm     77 % 0.00 in
18:26 46.8 °F 40.0 °F 30.18 in Calm     77 % 0.00 in
18:31 46.5 °F 40.0 °F 30.19 in Calm     78 % 0.00 in
18:36 46.2 °F 40.0 °F 30.19 in Calm     79 % 0.00 in
18:41 46.1 °F 39.9 °F 30.19 in Calm     79 % 0.00 in
18:46 46.0 °F 39.9 °F 30.19 in Calm     79 % 0.00 in
18:51 45.8 °F 39.7 °F 30.19 in Calm     79 % 0.00 in
18:56 45.7 °F 39.6 °F 30.19 in Calm     79 % 0.00 in
19:01 46.3 °F 39.8 °F 30.19 in Calm     78 % 0.00 in
19:06 46.6 °F 39.4 °F 30.19 in Calm     76 % 0.00 in
19:11 46.3 °F 39.1 °F 30.19 in Calm     76 % 0.00 in
19:16 45.8 °F 39.0 °F 30.19 in Calm     77 % 0.00 in
19:21 45.4 °F 39.3 °F 30.19 in Calm     79 % 0.00 in
19:26 45.3 °F 39.2 °F 30.19 in Calm     79 % 0.00 in
19:31 45.1 °F 39.0 °F 30.20 in Calm     79 % 0.00 in
19:36 44.9 °F 39.1 °F 30.20 in Calm     80 % 0.00 in
19:41 44.6 °F 39.1 °F 30.20 in Calm     81 % 0.00 in
19:46 44.2 °F 38.7 °F 30.20 in Calm     81 % 0.00 in
19:52 43.8 °F 38.0 °F 30.20 in Calm     80 % 0.00 in
19:57 43.3 °F 37.9 °F 30.20 in Calm     81 % 0.00 in
20:02 42.9 °F 37.5 °F 30.20 in Calm     81 % 0.00 in
20:07 42.5 °F 37.4 °F 30.20 in Calm     82 % 0.00 in
20:12 42.2 °F 37.4 °F 30.20 in Calm     83 % 0.00 in
20:17 42.0 °F 37.5 °F 30.20 in Calm     84 % 0.00 in
20:22 41.9 °F 37.4 °F 30.20 in Calm     84 % 0.00 in
20:27 41.7 °F 37.5 °F 30.20 in Calm     85 % 0.00 in
20:32 41.7 °F 37.8 °F 30.20 in Calm     86 % 0.00 in
20:37 41.6 °F 37.4 °F 30.21 in Calm     85 % 0.00 in
20:42 41.4 °F 37.5 °F 30.21 in Calm     86 % 0.00 in
20:47 41.2 °F 37.3 °F 30.21 in Calm     86 % 0.00 in
20:52 41.1 °F 37.5 °F 30.21 in Calm     87 % 0.00 in
20:57 40.9 °F 37.3 °F 30.21 in Calm     87 % 0.00 in
21:02 40.9 °F 37.3 °F 30.21 in Calm     87 % 0.00 in
21:07 40.7 °F 37.1 °F 30.21 in Calm     87 % 0.00 in
21:12 40.6 °F 37.0 °F 30.21 in Calm     87 % 0.00 in
21:17 40.4 °F 36.8 °F 30.21 in Calm     87 % 0.00 in
21:22 40.3 °F 36.7 °F 30.21 in Calm     87 % 0.00 in
21:27 40.3 °F 36.7 °F 30.21 in Calm     87 % 0.00 in
21:32 40.5 °F 37.2 °F 30.21 in Calm     88 % 0.00 in
21:37 40.6 °F 37.0 °F 30.22 in Calm     87 % 0.00 in
21:42 40.5 °F 36.9 °F 30.22 in Calm     87 % 0.00 in
21:48 40.3 °F 36.7 °F 30.22 in Calm     87 % 0.00 in
21:53 40.4 °F 37.1 °F 30.22 in Calm     88 % 0.00 in
21:58 40.5 °F 36.9 °F 30.22 in Calm     87 % 0.00 in
22:03 40.6 °F 36.7 °F 30.22 in Calm     86 % 0.00 in
22:05 40.6 °F 36.7 °F 30.22 in Calm     86 % 0.00 in
22:10 40.4 °F 36.2 °F 30.22 in Calm     85 % 0.00 in
22:15 40.0 °F 36.2 °F 30.22 in Calm     86 % 0.00 in
22:20 39.7 °F 35.9 °F 30.22 in Calm     86 % 0.00 in
22:25 39.4 °F 35.9 °F 30.22 in Calm     87 % 0.00 in
22:30 39.2 °F 35.7 °F 30.22 in Calm     87 % 0.00 in
22:34 39.1 °F 35.6 °F 30.22 in Calm     87 % 0.00 in
22:39 39.0 °F 35.5 °F 30.22 in Calm     87 % 0.00 in
22:44 38.7 °F 35.2 °F 30.22 in Calm     87 % 0.00 in
22:49 38.6 °F 35.1 °F 30.22 in Calm     87 % 0.00 in
22:54 38.5 °F 35.3 °F 30.22 in Calm     88 % 0.00 in
22:59 38.4 °F 35.2 °F 30.22 in Calm     88 % 0.00 in
23:04 38.0 °F 34.8 °F 30.21 in Calm     88 % 0.00 in
23:09 37.7 °F 34.5 °F 30.21 in Calm     88 % 0.00 in
23:14 37.7 °F 34.8 °F 30.22 in Calm     89 % 0.00 in
23:16 37.6 °F 34.7 °F 30.22 in Calm     89 % 0.00 in
23:21 37.7 °F 34.8 °F 30.21 in Calm     89 % 0.00 in
23:26 37.7 °F 34.8 °F 30.21 in Calm     89 % 0.00 in
23:31 37.5 °F 34.3 °F 30.21 in Calm     88 % 0.00 in
23:37 37.4 °F 34.7 °F 30.21 in Calm     90 % 0.00 in
23:42 37.6 °F 34.9 °F 30.21 in Calm     90 % 0.00 in
23:47 37.9 °F 34.9 °F 30.21 in Calm     89 % 0.00 in
23:52 38.2 °F 35.5 °F 30.21 in Calm     90 % 0.00 in
23:57 38.5 °F 35.5 °F 30.21 in Calm     89 % 0.00 in
Park Place, Exeter, Tulare County, California, USA
Compliments of Weather Underground - 3 mb